Time;durP1;ratioP1;P1;durP2;ratioP2;P2;SDS_P1;SDS_P2;PMS_P1;PMS_P2;Temp;Humidity;BMP_temperature;BMP_pressure;BME280_temperature;BME280_humidity;BME280_pressure;Samples;Min_cycle;Max_cycle;Signal;HPM_P1;HPM_P2
2022/05/01 00:01:41;;;;;;;5.55;3.98;;;;;;;20.11;42.78;101361.90;1731672;81;21080;-82
2022/05/01 00:04:07;;;;;;;5.72;4.37;;;;;;;20.10;42.78;101364.95;1762236;81;21076;-82
2022/05/01 00:06:34;;;;;;;7.00;4.25;;;;;;;20.09;42.78;101362.75;1762570;81;21302;-82
2022/05/01 00:09:00;;;;;;;5.75;4.37;;;;;;;20.11;42.79;101364.66;1768937;80;21037;-81
2022/05/01 00:11:28;;;;;;;4.95;3.65;;;;;;;20.09;42.78;101362.75;1762858;81;21017;-82
2022/05/01 00:13:54;;;;;;;4.80;3.33;;;;;;;20.08;42.80;101360.54;1762624;81;21029;-82
2022/05/01 00:16:20;;;;;;;5.00;4.30;;;;;;;20.08;42.80;101368.83;1762885;80;21041;-82
2022/05/01 00:18:52;;;;;;;5.97;3.95;;;;;;;20.08;42.80;101363.30;1762840;81;22108;-82
2022/05/01 00:21:19;;;;;;;6.37;4.05;;;;;;;20.08;42.80;101368.83;1762443;81;21022;-82
2022/05/01 00:23:45;;;;;;;5.70;4.10;;;;;;;20.08;42.80;101366.06;1762777;81;21547;-82
2022/05/01 00:26:11;;;;;;;5.72;3.90;;;;;;;20.07;42.77;101368.56;1762763;81;21025;-82
2022/05/01 00:28:38;;;;;;;6.62;4.22;;;;;;;20.07;42.76;101358.89;1762679;81;21460;-82
2022/05/01 00:31:05;;;;;;;5.03;4.40;;;;;;;20.07;42.77;101365.80;1762561;81;21233;-82
2022/05/01 00:36:26;;;;;;;5.87;3.77;;;;;;;20.08;42.75;101361.09;1721840;81;20951;-82
2022/05/01 00:39:03;;;;;;;4.70;3.87;;;;;;;20.06;42.75;101368.32;1720004;82;21026;-82
2022/05/01 00:41:32;;;;;;;5.78;3.90;;;;;;;20.06;42.73;101359.21;1708674;84;21044;-82
2022/05/01 00:44:12;;;;;;;4.92;4.10;;;;;;;20.05;42.74;101357.00;1708862;82;21431;-82
2022/05/01 00:46:38;;;;;;;5.40;3.70;;;;;;;20.06;42.73;101353.69;1707985;82;21428;-82
2022/05/01 00:49:08;;;;;;;4.97;3.75;;;;;;;20.05;42.74;101353.42;1720720;82;21073;-82
2022/05/01 00:51:47;;;;;;;6.10;4.22;;;;;;;20.05;42.70;101361.15;1708907;82;21504;-81
2022/05/01 00:54:16;;;;;;;5.70;4.17;;;;;;;20.05;42.72;101358.95;1708805;82;21026;-82
2022/05/01 00:56:54;;;;;;;5.70;3.70;;;;;;;20.05;42.70;101359.77;1709041;82;21238;-82
2022/05/01 00:59:21;;;;;;;4.62;3.67;;;;;;;20.05;42.71;101357.00;1708690;82;21018;-81
2022/05/01 01:01:49;;;;;;;6.45;4.28;;;;;;;20.03;42.70;101352.33;1709022;84;21006;-81
2022/05/01 01:04:15;;;;;;;4.78;3.87;;;;;;;20.04;42.69;101352.59;1708923;84;21085;-81
2022/05/01 01:06:42;;;;;;;6.00;4.20;;;;;;;20.03;42.68;101350.95;1708627;84;21081;-81
2022/05/01 01:09:09;;;;;;;5.42;3.90;;;;;;;20.04;42.68;101344.31;1708937;82;21575;-81
2022/05/01 01:11:37;;;;;;;5.80;4.37;;;;;;;20.04;42.68;101344.31;1720870;82;21105;-81
2022/05/01 01:14:05;;;;;;;6.00;3.87;;;;;;;20.04;42.65;101346.25;1708656;82;21052;-81
2022/05/01 01:16:34;;;;;;;5.65;3.70;;;;;;;20.04;42.65;101342.92;1708903;82;21041;-81
2022/05/01 01:19:04;;;;;;;6.47;3.72;;;;;;;20.05;42.62;101345.13;1709044;82;21025;-81
2022/05/01 01:21:31;;;;;;;5.72;4.05;;;;;;;20.04;42.62;101347.07;1708835;82;21776;-81
2022/05/01 01:23:57;;;;;;;4.65;3.47;;;;;;;20.03;42.63;101339.08;1709085;82;21065;-81
2022/05/01 01:26:23;;;;;;;5.40;3.75;;;;;;;20.03;42.62;101339.90;1708899;84;21562;-81
2022/05/01 01:28:49;;;;;;;5.70;3.95;;;;;;;20.03;42.61;101338.52;1720642;82;21519;-81
2022/05/01 01:34:10;;;;;;;5.87;3.98;;;;;;;20.03;42.61;101342.66;1698257;84;21119;-82
2022/05/01 01:36:37;;;;;;;7.45;3.85;;;;;;;20.02;42.60;101347.95;1743536;80;21065;-82
2022/05/01 01:39:05;;;;;;;4.20;3.62;;;;;;;20.02;42.58;101353.47;1754815;80;20977;-82
2022/05/01 01:41:31;;;;;;;6.62;3.98;;;;;;;20.03;42.59;101351.50;1755007;81;21010;-82
2022/05/01 01:43:58;;;;;;;4.83;3.90;;;;;;;20.02;42.58;101349.33;1755173;81;21018;-82
2022/05/01 01:46:25;;;;;;;6.95;4.10;;;;;;;20.02;42.58;101351.27;1754841;81;21174;-82
2022/05/01 01:48:52;;;;;;;5.47;4.15;;;;;;;20.02;42.58;101354.85;1759130;81;21132;-82
2022/05/01 01:51:18;;;;;;;5.60;4.12;;;;;;;20.02;42.57;101346.56;1755146;81;21109;-82
2022/05/01 01:53:45;;;;;;;4.28;3.83;;;;;;;20.02;42.59;101347.95;1754952;81;21045;-82
2022/05/01 01:56:11;;;;;;;4.87;3.47;;;;;;;20.02;42.57;101346.56;1755171;81;21010;-82
2022/05/01 01:58:39;;;;;;;5.87;4.03;;;;;;;20.01;42.58;101348.23;1754917;81;21648;-82
2022/05/01 02:01:07;;;;;;;4.75;3.72;;;;;;;20.02;42.55;101353.47;1754688;81;21100;-82
2022/05/01 02:03:34;;;;;;;4.95;3.77;;;;;;;20.01;42.57;101356.52;1755124;80;21045;-82
2022/05/01 02:06:00;;;;;;;4.58;3.80;;;;;;;20.01;42.57;101359.28;1755037;81;21047;-82
2022/05/01 02:08:27;;;;;;;5.15;3.77;;;;;;;20.01;42.56;101364.25;1754723;81;21061;-82
2022/05/01 02:10:53;;;;;;;6.47;4.03;;;;;;;20.02;42.55;101360.38;1755053;81;21221;-82
2022/05/01 02:13:19;;;;;;;4.37;3.65;;;;;;;20.01;42.56;101357.91;1755097;81;21025;-82
2022/05/01 02:15:46;;;;;;;5.72;3.75;;;;;;;20.01;42.56;101360.66;1754749;81;21077;-82
2022/05/01 02:18:12;;;;;;;4.80;3.60;;;;;;;20.00;42.54;101359.84;1755149;81;21112;-82
2022/05/01 02:23:25;;;;;;;5.05;3.75;;;;;;;20.00;42.52;101359.84;1736718;81;21060;-82
2022/05/01 02:25:51;;;;;;;5.08;3.40;;;;;;;19.99;42.52;101366.48;1754895;81;21040;-82
2022/05/01 02:28:17;;;;;;;4.65;3.60;;;;;;;20.00;42.50;101364.55;1755014;81;21104;-82
2022/05/01 02:30:44;;;;;;;5.30;3.67;;;;;;;19.99;42.52;101363.72;1754985;81;21057;-82
2022/05/01 02:33:10;;;;;;;3.98;3.45;;;;;;;20.00;42.53;101361.78;1755151;81;21801;-82
2022/05/01 02:35:37;;;;;;;4.85;3.75;;;;;;;19.98;42.54;101357.95;1755192;81;21222;-82
2022/05/01 02:38:03;;;;;;;5.42;3.50;;;;;;;19.98;42.53;101357.95;1755266;81;21543;-82
2022/05/01 02:40:30;;;;;;;5.78;4.58;;;;;;;19.98;42.52;101359.34;1770182;79;21048;-82
2022/05/01 02:42:58;;;;;;;4.70;3.27;;;;;;;19.98;42.51;101360.72;1782339;79;21547;-82
2022/05/01 02:45:30;;;;;;;5.12;3.87;;;;;;;19.97;42.51;101361.83;1782159;79;20949;-81
2022/05/01 02:47:56;;;;;;;5.97;4.30;;;;;;;19.99;42.52;101364.27;1782302;79;21589;-82
2022/05/01 02:50:22;;;;;;;4.17;3.72;;;;;;;19.98;42.51;101364.86;1735506;80;20933;-81
2022/05/01 02:52:54;;;;;;;5.45;3.65;;;;;;;19.98;42.52;101358.52;1760102;80;21009;-81
2022/05/01 02:55:19;;;;;;;5.33;4.08;;;;;;;19.97;42.53;101356.31;1759295;80;20994;-81
2022/05/01 02:57:45;;;;;;;4.92;3.65;;;;;;;19.97;42.51;101356.86;1782329;79;21029;-81
2022/05/01 03:00:16;;;;;;;4.62;3.75;;;;;;;19.96;42.51;101364.33;1781914;80;21008;-81
2022/05/01 03:02:41;;;;;;;5.05;4.00;;;;;;;19.96;42.52;101362.95;1781997;80;21033;-82
2022/05/01 03:05:08;;;;;;;5.33;3.50;;;;;;;19.96;42.50;101371.23;1782259;80;21067;-82
2022/05/01 03:07:34;;;;;;;4.95;3.92;;;;;;;19.97;42.48;101374.81;1781961;79;21801;-82
2022/05/01 03:10:00;;;;;;;4.70;3.52;;;;;;;19.96;42.51;101375.93;1782254;79;21032;-82
2022/05/01 03:12:26;;;;;;;6.28;4.60;;;;;;;19.96;42.49;101377.31;1782478;79;21557;-82
2022/05/01 03:14:53;;;;;;;5.60;3.90;;;;;;;19.96;42.49;101373.17;1760018;80;20988;-82
2022/05/01 03:17:19;;;;;;;5.80;3.92;;;;;;;19.96;42.48;101375.93;1782167;78;21036;-82
2022/05/01 03:22:30;;;;;;;5.20;3.95;;;;;;;19.96;42.46;101378.69;1763493;80;22350;-81
2022/05/01 03:24:56;;;;;;;5.55;3.65;;;;;;;19.95;42.45;101377.05;1782293;79;21979;-82
2022/05/01 03:27:28;;;;;;;5.25;4.00;;;;;;;19.95;42.45;101375.66;1781836;79;21099;-82
2022/05/01 03:32:39;;;;;;;6.55;4.20;;;;;;;19.95;42.46;101381.19;1781903;79;21494;-83
2022/05/01 03:35:07;;;;;;;6.03;4.80;;;;;;;19.94;42.45;101376.80;1781996;79;21032;-83
2022/05/01 03:37:33;;;;;;;5.08;4.00;;;;;;;19.93;42.45;101369.08;1782164;79;21088;-83
2022/05/01 03:40:06;;;;;;;6.28;4.12;;;;;;;19.94;42.45;101377.59;1782245;79;21056;-80
2022/05/01 03:42:32;;;;;;;4.97;4.03;;;;;;;19.94;42.46;101375.42;1785786;78;21084;-82
2022/05/01 03:44:58;;;;;;;5.33;4.50;;;;;;;19.94;42.45;101376.22;1782257;80;21036;-82
2022/05/01 03:47:25;;;;;;;6.58;4.10;;;;;;;19.94;42.42;101386.47;1782218;80;21087;-82
2022/05/01 03:49:51;;;;;;;4.55;3.90;;;;;;;19.93;42.42;101383.44;1782049;79;21901;-82
2022/05/01 03:52:17;;;;;;;4.90;4.30;;;;;;;19.93;42.41;101384.27;1760330;80;21056;-82
2022/05/01 03:54:43;;;;;;;5.28;3.58;;;;;;;19.93;42.39;101384.27;1782323;79;21092;-81
2022/05/01 03:57:10;;;;;;;5.47;4.58;;;;;;;19.93;42.39;101385.65;1781936;79;21527;-82
2022/05/01 03:59:36;;;;;;;7.08;4.28;;;;;;;19.93;42.40;101386.20;1760495;80;21020;-81
2022/05/01 04:02:09;;;;;;;4.53;4.05;;;;;;;19.94;42.38;101389.23;1781947;79;21041;-82
2022/05/01 04:04:35;;;;;;;6.60;4.25;;;;;;;19.94;42.39;101383.71;1782131;79;21534;-82
2022/05/01 04:07:02;;;;;;;6.78;4.20;;;;;;;19.94;42.36;101386.47;1786370;79;21064;-82
2022/05/01 04:09:29;;;;;;;5.10;4.20;;;;;;;19.92;42.34;101385.38;1781916;79;21032;-82
2022/05/01 04:11:55;;;;;;;6.67;4.58;;;;;;;19.94;42.33;101391.99;1781850;80;21119;-82
2022/05/01 04:14:28;;;;;;;4.55;4.00;;;;;;;19.93;42.29;101398.08;1782295;79;21463;-82
2022/05/01 04:16:56;;;;;;;5.87;4.10;;;;;;;19.94;42.29;101397.52;1786132;78;20984;-82
2022/05/01 04:19:29;;;;;;;5.05;4.10;;;;;;;19.93;42.27;101393.11;1781843;79;21512;-82
2022/05/01 04:21:55;;;;;;;4.97;3.60;;;;;;;19.93;42.27;101395.31;1782387;79;21566;-81
2022/05/01 04:24:22;;;;;;;5.08;3.85;;;;;;;19.94;42.26;101398.31;1782307;78;21021;-82
2022/05/01 04:26:48;;;;;;;4.78;3.83;;;;;;;19.93;42.24;101396.70;1781928;78;21161;-82
2022/05/01 04:32:00;;;;;;;4.97;3.90;;;;;;;19.93;42.22;101392.55;1781959;79;21076;-82
2022/05/01 04:34:26;;;;;;;5.50;3.80;;;;;;;19.93;42.21;101393.94;1782271;79;21514;-82
2022/05/01 04:36:53;;;;;;;4.97;4.17;;;;;;;19.93;42.20;101393.94;1781922;79;21087;-82
2022/05/01 04:39:25;;;;;;;5.30;3.87;;;;;;;19.93;42.19;101388.97;1781886;79;21087;-82
2022/05/01 04:41:53;;;;;;;5.00;4.10;;;;;;;19.92;42.19;101393.66;1782124;79;21111;-81
2022/05/01 04:44:20;;;;;;;6.30;3.92;;;;;;;19.93;42.18;101392.55;1781947;79;21111;-82
2022/05/01 04:46:49;;;;;;;6.40;3.98;;;;;;;19.94;42.18;101397.52;1781984;79;21063;-82
2022/05/01 04:49:14;;;;;;;5.62;3.92;;;;;;;19.94;42.18;101391.41;1723997;82;21041;-82
2022/05/01 04:51:40;;;;;;;5.95;4.28;;;;;;;19.94;42.18;101396.14;1736469;82;21489;-81
2022/05/01 04:54:07;;;;;;;5.15;3.95;;;;;;;19.95;42.17;101400.52;1736170;81;20962;-82
2022/05/01 04:59:18;;;;;;;6.00;3.80;;;;;;;19.94;42.14;101394.17;1736213;81;21559;-81
2022/05/01 05:01:44;;;;;;;4.90;3.83;;;;;;;19.95;42.11;101388.09;1736477;81;21006;-81
2022/05/01 05:04:10;;;;;;;4.20;3.62;;;;;;;19.95;42.11;101385.33;1736508;82;21177;-81
2022/05/01 05:06:36;;;;;;;4.12;3.65;;;;;;;19.94;42.12;101384.50;1715269;82;21044;-81
2022/05/01 05:11:47;;;;;;;4.95;3.70;;;;;;;19.95;42.11;101388.91;1736211;82;21555;-82
2022/05/01 05:14:14;;;;;;;5.40;4.00;;;;;;;19.95;42.10;101393.05;1736473;81;21112;-82
2022/05/01 05:16:41;;;;;;;4.12;3.45;;;;;;;19.95;42.10;101392.23;1736417;82;21463;-82
2022/05/01 05:19:07;;;;;;;4.90;3.72;;;;;;;19.95;42.10;101393.05;1714093;82;21117;-82
2022/05/01 05:21:34;;;;;;;5.42;3.87;;;;;;;19.96;42.08;101385.59;1715738;81;21559;-82
2022/05/01 05:24:00;;;;;;;5.55;4.10;;;;;;;19.96;42.09;101390.56;1736320;81;21080;-82
2022/05/01 05:26:26;;;;;;;4.20;3.52;;;;;;;19.96;42.08;101391.12;1736291;81;21076;-82
2022/05/01 05:28:53;;;;;;;5.12;3.60;;;;;;;19.96;42.09;101389.19;1736424;81;21110;-82
2022/05/01 05:31:19;;;;;;;4.30;3.60;;;;;;;19.96;42.10;101387.80;1736446;81;21471;-82
2022/05/01 05:33:45;;;;;;;5.45;3.45;;;;;;;19.96;42.08;101382.84;1736428;82;20950;-82
2022/05/01 05:36:12;;;;;;;5.42;3.62;;;;;;;19.96;42.09;101380.89;1715076;82;21136;-82
2022/05/01 05:38:38;;;;;;;4.45;3.80;;;;;;;19.97;42.10;101384.48;1707991;82;21511;-82
2022/05/01 05:41:05;;;;;;;4.55;3.45;;;;;;;19.98;42.10;101382.81;1738165;81;21005;-82
2022/05/01 05:43:37;;;;;;;5.12;3.50;;;;;;;19.96;42.10;101380.89;1709715;82;21088;-82
2022/05/01 05:46:03;;;;;;;4.75;3.25;;;;;;;19.97;42.10;101377.58;1730448;82;20986;-82
2022/05/01 05:48:30;;;;;;;4.90;3.12;;;;;;;19.97;42.10;101378.41;1728211;83;20981;-82
2022/05/01 05:50:56;;;;;;;5.03;3.65;;;;;;;19.97;42.12;101378.41;1728472;82;21011;-82
2022/05/01 05:53:22;;;;;;;3.58;2.95;;;;;;;19.97;42.10;101385.31;1707752;82;21508;-82
2022/05/01 05:55:49;;;;;;;5.65;3.83;;;;;;;19.97;42.11;101382.55;1728198;82;21080;-82
2022/05/01 05:58:15;;;;;;;4.87;3.75;;;;;;;19.98;42.10;101375.09;1728484;82;21064;-82
2022/05/01 06:00:41;;;;;;;4.35;3.20;;;;;;;19.97;42.12;101378.41;1728576;82;22207;-82
2022/05/01 06:03:07;;;;;;;4.50;3.35;;;;;;;19.99;42.11;101383.61;1728315;82;21108;-82
2022/05/01 06:05:40;;;;;;;4.97;3.60;;;;;;;19.98;42.12;101385.58;1728055;83;21073;-82
2022/05/01 06:08:07;;;;;;;4.12;3.25;;;;;;;19.99;42.13;101388.58;1728509;82;21006;-82
2022/05/01 06:10:33;;;;;;;5.10;3.55;;;;;;;19.98;42.12;101387.52;1728004;82;21049;-82
2022/05/01 06:12:59;;;;;;;4.17;3.27;;;;;;;20.00;42.12;101390.78;1728494;82;21014;-82
2022/05/01 06:15:26;;;;;;;3.87;3.30;;;;;;;19.99;42.13;101384.98;1728399;82;21026;-82
2022/05/01 06:17:52;;;;;;;4.30;3.08;;;;;;;19.99;42.13;101387.75;1728236;82;21264;-82
2022/05/01 06:20:19;;;;;;;3.92;3.27;;;;;;;19.99;42.13;101389.95;1728512;82;21021;-82
2022/05/01 06:22:47;;;;;;;5.22;3.50;;;;;;;20.00;42.12;101387.46;1728549;82;21038;-82
2022/05/01 06:25:14;;;;;;;4.87;3.25;;;;;;;19.99;42.16;101385.81;1728010;82;21069;-82
2022/05/01 06:27:40;;;;;;;4.03;3.52;;;;;;;20.00;42.16;101389.40;1684218;83;21439;-82
2022/05/01 06:30:10;;;;;;;3.92;3.10;;;;;;;20.00;42.15;101395.75;1728444;82;21215;-82
2022/05/01 06:32:35;;;;;;;4.42;3.27;;;;;;;20.00;42.17;101391.61;1728028;82;20978;-82
2022/05/01 06:35:02;;;;;;;4.40;3.08;;;;;;;20.00;42.17;101383.88;1728589;82;21041;-82
2022/05/01 06:37:29;;;;;;;4.58;3.30;;;;;;;20.01;42.18;101388.28;1728261;82;21073;-82
2022/05/01 06:39:55;;;;;;;3.50;2.95;;;;;;;20.01;42.17;101392.43;1728359;82;21041;-82
2022/05/01 06:42:21;;;;;;;4.75;3.50;;;;;;;20.02;42.18;101387.17;1707948;83;21329;-82
2022/05/01 06:44:47;;;;;;;4.10;3.30;;;;;;;20.02;42.17;101391.31;1728443;82;21037;-82
2022/05/01 06:47:14;;;;;;;4.33;3.22;;;;;;;20.02;42.18;101393.52;1728079;83;21136;-82
2022/05/01 06:49:41;;;;;;;4.00;3.25;;;;;;;20.03;42.17;101394.31;1728546;82;21606;-82
2022/05/01 06:52:07;;;;;;;3.37;3.02;;;;;;;20.02;42.20;101385.23;1707984;82;21040;-82
2022/05/01 06:54:33;;;;;;;5.37;3.60;;;;;;;20.03;42.20;101401.22;1728160;82;21096;-82
2022/05/01 06:57:00;;;;;;;3.70;3.10;;;;;;;20.03;42.19;101400.66;1728303;82;21069;-82
2022/05/01 06:59:26;;;;;;;3.70;2.90;;;;;;;20.04;42.17;101395.97;1707725;83;22285;-82
2022/05/01 07:01:52;;;;;;;4.33;3.05;;;;;;;20.04;42.16;101400.94;1728067;82;21068;-82
2022/05/01 07:04:18;;;;;;;4.60;3.30;;;;;;;20.04;42.16;101398.17;1728384;82;21053;-82
2022/05/01 07:06:45;;;;;;;4.85;3.25;;;;;;;20.06;42.16;101403.41;1728470;82;21670;-82
2022/05/01 07:09:12;;;;;;;6.03;3.40;;;;;;;20.05;42.16;101406.73;1728346;82;21033;-82
2022/05/01 07:11:38;;;;;;;3.80;2.87;;;;;;;20.07;42.17;101406.44;1728445;82;21018;-82
2022/05/01 07:14:04;;;;;;;4.08;2.70;;;;;;;20.08;42.15;101405.30;1728469;82;21093;-82
2022/05/01 07:16:30;;;;;;;4.45;3.12;;;;;;;20.08;42.16;101408.88;1728055;82;21081;-82
2022/05/01 07:18:56;;;;;;;3.85;3.22;;;;;;;20.08;42.15;101403.91;1728400;82;22109;-82
2022/05/01 07:21:23;;;;;;;5.33;2.95;;;;;;;20.09;42.16;101408.33;1728436;82;21045;-82
2022/05/01 07:23:49;;;;;;;5.65;3.15;;;;;;;20.09;42.16;101419.38;1728402;82;21558;-82
2022/05/01 07:26:15;;;;;;;3.62;3.00;;;;;;;20.10;42.16;101409.15;1728405;82;21017;-82
2022/05/01 07:28:41;;;;;;;3.62;3.00;;;;;;;20.11;42.15;101417.15;1728451;82;21172;-82
2022/05/01 07:31:07;;;;;;;4.50;3.30;;;;;;;20.12;42.16;101416.56;1728069;82;22564;-82
2022/05/01 07:33:34;;;;;;;4.35;3.33;;;;;;;20.11;42.17;101412.18;1728410;82;21018;-82
2022/05/01 07:36:00;;;;;;;4.20;2.95;;;;;;;20.12;42.17;101416.00;1728537;82;21098;-82
2022/05/01 07:38:27;;;;;;;4.78;3.10;;;;;;;20.13;42.18;101414.06;1728092;82;21477;-82
2022/05/01 07:40:53;;;;;;;4.62;3.37;;;;;;;20.13;42.16;101414.06;1707613;83;21085;-82
2022/05/01 07:43:19;;;;;;;4.25;2.75;;;;;;;20.14;42.18;101412.95;1728442;82;21065;-82
2022/05/01 07:45:46;;;;;;;5.08;3.30;;;;;;;20.14;42.17;101412.95;1707184;82;21056;-82
2022/05/01 07:48:12;;;;;;;4.10;2.98;;;;;;;20.15;42.17;101411.84;1728297;82;20982;-82
2022/05/01 07:50:38;;;;;;;4.03;3.27;;;;;;;20.14;42.18;101412.95;1728348;82;21049;-82
2022/05/01 07:53:05;;;;;;;4.05;3.08;;;;;;;20.14;42.20;101412.95;1728184;82;21092;-82
2022/05/01 07:55:31;;;;;;;3.92;2.92;;;;;;;20.15;42.20;101413.22;1728379;82;21069;-82
2022/05/01 07:57:57;;;;;;;4.90;3.22;;;;;;;20.15;42.18;101411.28;1728350;82;21092;-82
2022/05/01 08:00:24;;;;;;;3.50;2.72;;;;;;;20.16;42.19;101410.69;1728097;82;21509;-82
2022/05/01 08:05:34;;;;;;;4.42;3.30;;;;;;;20.16;42.21;101408.76;1728092;83;21001;-81
2022/05/01 08:08:01;;;;;;;3.15;2.75;;;;;;;20.17;42.23;101408.20;1728265;82;21576;-80
2022/05/01 08:10:27;;;;;;;3.60;2.80;;;;;;;20.17;42.23;101409.02;1728396;82;20982;-80
2022/05/01 08:12:55;;;;;;;3.67;3.08;;;;;;;20.16;42.25;101407.38;1728194;82;21002;-81
2022/05/01 08:15:21;;;;;;;3.55;2.75;;;;;;;20.16;42.26;101408.76;1706692;82;21038;-81
2022/05/01 08:17:48;;;;;;;3.62;2.87;;;;;;;20.17;42.27;101404.05;1707698;83;21556;-81
2022/05/01 08:23:04;;;;;;;3.17;2.70;;;;;;;20.18;42.28;101409.84;1728151;82;21116;-82
2022/05/01 08:25:32;;;;;;;4.25;2.90;;;;;;;20.18;42.27;101412.61;1727983;82;33522;-82
2022/05/01 08:27:58;;;;;;;3.55;2.85;;;;;;;20.18;42.28;101412.61;1728391;82;21046;-82
2022/05/01 08:30:30;;;;;;;3.20;2.90;;;;;;;20.17;42.29;101406.81;1728160;82;21081;-82
2022/05/01 08:32:57;;;;;;;3.33;2.72;;;;;;;20.17;42.28;101410.41;1707222;83;21111;-82
2022/05/01 08:35:23;;;;;;;4.28;2.87;;;;;;;20.17;42.30;101408.20;1707888;82;21094;-82
2022/05/01 08:37:49;;;;;;;4.12;2.72;;;;;;;20.18;42.30;101405.70;1728160;82;20921;-82
2022/05/01 08:40:16;;;;;;;3.98;2.95;;;;;;;20.17;42.30;101391.06;1728151;82;21064;-82
2022/05/01 08:42:42;;;;;;;3.90;3.15;;;;;;;20.18;42.30;101398.23;1728377;82;21077;-82
2022/05/01 08:45:09;;;;;;;3.67;2.80;;;;;;;20.19;42.28;101396.30;1728387;82;21897;-82
2022/05/01 08:47:40;;;;;;;4.20;2.70;;;;;;;20.19;42.29;101392.16;1727965;82;21200;-82
2022/05/01 08:50:09;;;;;;;3.47;2.60;;;;;;;20.19;42.29;101387.45;1728283;82;21128;-82
2022/05/01 08:52:37;;;;;;;3.70;2.87;;;;;;;20.18;42.29;101389.95;1779662;79;21080;-82
2022/05/01 08:55:05;;;;;;;5.00;2.80;;;;;;;20.19;42.31;101392.98;1779361;79;21060;-82
2022/05/01 08:57:33;;;;;;;3.33;2.70;;;;;;;20.19;42.28;101382.48;1779615;79;21002;-81
2022/05/01 09:00:00;;;;;;;3.05;2.60;;;;;;;20.20;42.28;101385.52;1779337;79;21107;-81
2022/05/01 09:02:26;;;;;;;2.98;2.50;;;;;;;20.21;42.29;101389.90;1779461;79;21574;-81
2022/05/01 09:04:52;;;;;;;3.70;2.80;;;;;;;20.20;42.29;101385.52;1779473;79;21020;-81
2022/05/01 09:07:18;;;;;;;4.28;2.83;;;;;;;20.20;42.27;101386.91;1779868;79;21672;-81
2022/05/01 09:09:45;;;;;;;4.10;2.52;;;;;;;20.20;42.31;101385.52;1779378;80;21172;-81
2022/05/01 09:14:56;;;;;;;3.40;2.37;;;;;;;20.21;42.29;101389.90;1779505;79;21008;-81
2022/05/01 09:17:23;;;;;;;3.33;2.60;;;;;;;20.21;42.29;101385.75;1779697;80;21096;-82
2022/05/01 09:19:55;;;;;;;4.15;2.70;;;;;;;20.21;42.29;101382.99;1779692;79;21077;-82
2022/05/01 09:22:21;;;;;;;3.60;2.75;;;;;;;20.20;42.29;101378.02;1777973;79;21541;-81
2022/05/01 09:24:56;;;;;;;4.28;2.70;;;;;;;20.21;42.31;101383.81;1779716;80;21064;-81
2022/05/01 09:27:31;;;;;;;3.15;2.75;;;;;;;20.21;42.29;101380.23;1775590;80;21000;-81
2022/05/01 09:30:21;;;;;;;4.08;3.10;;;;;;;20.21;42.30;101371.38;1783119;79;21127;-82
2022/05/01 09:32:56;;;;;;;4.62;2.87;;;;;;;20.21;42.29;101371.94;1779761;79;21052;-82
2022/05/01 09:35:34;;;;;;;4.00;2.98;;;;;;;20.21;42.29;101365.03;1714904;82;21491;-82
2022/05/01 09:38:23;;;;;;;3.85;2.70;;;;;;;20.21;42.31;101362.27;1759610;81;21093;-82
2022/05/01 09:40:55;;;;;;;3.02;2.70;;;;;;;20.20;42.29;101362.83;1759717;81;21500;-82
2022/05/01 09:43:45;;;;;;;2.60;2.25;;;;;;;20.20;42.29;101364.80;1750941;80;21557;-82
2022/05/01 09:46:23;;;;;;;2.47;2.27;;;;;;;20.20;42.31;101364.20;1793048;79;21075;-82
2022/05/01 09:49:10;;;;;;;3.70;2.67;;;;;;;20.20;42.29;101357.89;1787209;80;21267;-82
2022/05/01 09:51:48;;;;;;;3.25;2.65;;;;;;;20.20;42.33;101356.51;1781437;80;21079;-82
2022/05/01 09:54:21;;;;;;;2.92;2.33;;;;;;;20.20;42.31;101360.06;1782189;79;21044;-82
2022/05/01 09:56:57;;;;;;;3.50;2.92;;;;;;;20.20;42.33;101362.03;1760842;80;20993;-82
2022/05/01 09:59:29;;;;;;;3.65;2.60;;;;;;;20.20;42.33;101356.51;1782453;79;21488;-82
2022/05/01 10:02:07;;;;;;;3.50;2.62;;;;;;;20.19;42.33;101354.30;1760016;80;21178;-81
2022/05/01 10:04:35;;;;;;;3.67;2.30;;;;;;;20.18;42.36;101359.56;1782271;79;21012;-82
2022/05/01 10:07:02;;;;;;;3.42;2.60;;;;;;;20.20;42.37;101356.51;1782019;79;21577;-81
2022/05/01 10:09:31;;;;;;;2.72;2.50;;;;;;;20.21;42.35;101352.60;1782282;79;20989;-81
2022/05/01 10:11:59;;;;;;;2.90;2.30;;;;;;;20.21;42.37;101355.36;1781676;79;21676;-81
2022/05/01 10:14:26;;;;;;;2.92;2.40;;;;;;;20.20;42.35;101353.16;1782075;79;21185;-81
2022/05/01 10:16:54;;;;;;;3.30;2.65;;;;;;;20.20;42.35;101343.48;1782202;79;21482;-81
2022/05/01 10:19:23;;;;;;;3.77;2.85;;;;;;;20.20;42.37;101340.73;1782288;79;21088;-82
2022/05/01 10:21:53;;;;;;;3.08;2.45;;;;;;;20.20;42.39;101347.63;1782037;79;21052;-82
2022/05/01 10:24:20;;;;;;;2.65;2.33;;;;;;;20.21;42.38;101347.08;1781700;79;21467;-82
2022/05/01 10:27:06;;;;;;;3.17;2.45;;;;;;;20.20;42.39;101349.02;1782061;79;21164;-82
2022/05/01 10:32:49;;;;;;;4.28;2.67;;;;;;;20.21;42.39;101341.55;1772415;79;21522;-82
2022/05/01 10:35:46;;;;;;;3.45;2.55;;;;;;;20.19;42.39;101339.66;1781852;79;21033;-82
2022/05/01 10:38:23;;;;;;;3.02;2.33;;;;;;;20.20;42.39;101338.55;1782058;78;21048;-82
2022/05/01 10:40:59;;;;;;;3.02;2.17;;;;;;;20.19;42.39;101336.34;1781992;79;22088;-82
2022/05/01 10:43:35;;;;;;;2.55;2.35;;;;;;;20.19;42.40;101338.28;1782086;79;20989;-82
2022/05/01 10:46:23;;;;;;;3.05;2.45;;;;;;;20.18;42.42;101330.55;1781875;79;21521;-82
2022/05/01 10:48:49;;;;;;;3.58;2.50;;;;;;;20.19;42.42;101330.00;1781783;79;21522;-81
2022/05/01 10:51:42;;;;;;;3.35;2.72;;;;;;;20.19;42.40;101323.09;1781976;79;21050;-81
2022/05/01 10:54:20;;;;;;;3.42;2.20;;;;;;;20.18;42.43;101320.88;1782128;79;21135;-82
2022/05/01 10:56:49;;;;;;;2.58;2.00;;;;;;;20.19;42.41;101327.23;1771405;79;21330;-82
2022/05/01 10:59:39;;;;;;;3.08;2.40;;;;;;;20.19;42.43;101313.42;1782252;79;21008;-82
2022/05/01 11:02:03;;;;;;;2.90;2.58;;;;;;;20.19;42.46;101317.56;1780526;79;21534;-81
2022/05/01 11:04:41;;;;;;;2.83;2.50;;;;;;;20.19;42.45;101312.03;1782296;79;21566;-81
2022/05/01 11:07:10;;;;;;;3.30;2.47;;;;;;;20.19;42.48;101307.34;1781979;79;21025;-82
2022/05/01 11:09:37;;;;;;;3.02;2.10;;;;;;;20.19;42.49;101299.05;1782522;79;21490;-82
2022/05/01 11:12:09;;;;;;;3.85;2.42;;;;;;;20.19;42.52;101303.75;1782187;79;21079;-82
2022/05/01 11:14:52;;;;;;;3.60;2.20;;;;;;;20.19;42.52;101305.95;1760915;80;21019;-82
2022/05/01 11:17:40;;;;;;;3.00;2.40;;;;;;;20.20;42.53;101298.49;1782207;79;21071;-82
2022/05/01 11:20:09;;;;;;;2.90;2.10;;;;;;;20.20;42.55;101301.25;1781972;79;21105;-81
2022/05/01 11:22:35;;;;;;;3.35;2.08;;;;;;;20.18;42.55;101294.64;1782238;79;21134;-81
2022/05/01 11:25:01;;;;;;;3.10;2.60;;;;;;;20.18;42.55;101298.78;1782212;80;21052;-81
2022/05/01 11:27:28;;;;;;;2.92;2.30;;;;;;;20.19;42.55;101296.28;1760301;80;21005;-81
2022/05/01 11:30:22;;;;;;;3.05;2.35;;;;;;;20.19;42.57;101292.70;1735346;80;21033;-81
2022/05/01 11:32:47;;;;;;;3.12;2.30;;;;;;;20.20;42.54;101291.59;1778977;79;21510;-82
2022/05/01 11:35:14;;;;;;;3.33;2.62;;;;;;;20.20;42.56;101280.53;1782291;79;21432;-82
2022/05/01 11:38:02;;;;;;;3.50;2.27;;;;;;;20.19;42.55;101278.33;1782111;79;20948;-81
2022/05/01 11:40:28;;;;;;;2.50;2.22;;;;;;;20.21;42.56;101272.48;1781905;79;21024;-82
2022/05/01 11:43:17;;;;;;;2.55;2.22;;;;;;;20.20;42.55;101261.98;1782368;79;21052;-82
2022/05/01 11:45:45;;;;;;;2.72;2.25;;;;;;;20.20;42.54;101267.51;1759345;79;21138;-82
2022/05/01 11:48:16;;;;;;;2.80;2.10;;;;;;;20.20;42.54;101263.36;1782081;80;21036;-82
2022/05/01 11:50:43;;;;;;;2.60;2.27;;;;;;;20.20;42.54;101259.81;1782170;80;21048;-81
2022/05/01 11:53:24;;;;;;;2.90;2.30;;;;;;;20.21;42.55;101268.34;1781981;79;21511;-81
2022/05/01 12:04:36;;;;;;;3.35;2.50;;;;;;;20.19;42.53;101253.47;1781946;78;20989;-82
2022/05/01 12:07:18;;;;;;;3.67;2.60;;;;;;;20.18;42.54;101244.91;1782132;79;21528;-82
2022/05/01 12:09:42;;;;;;;3.37;2.47;;;;;;;20.19;42.54;101236.89;1780719;79;21052;-82
2022/05/01 12:12:11;;;;;;;2.77;2.27;;;;;;;20.18;42.56;101233.86;1782193;79;21101;-82
2022/05/01 12:14:41;;;;;;;3.25;2.45;;;;;;;20.19;42.57;101229.16;1781925;78;21056;-82